Time;durP1;ratioP1;P1;durP2;ratioP2;P2;SDS_P1;SDS_P2;PMS_P1;PMS_P2;Temp;Humidity;BMP_temperature;BMP_pressure;BME280_temperature;BME280_humidity;BME280_pressure;Samples;Min_cycle;Max_cycle;Signal;HPM_P1;HPM_P2
2023/04/30 00:01:11;;;;;;;;;;;;;;;12.49;100.00;98694.77;135359;1281;22513;-66
2023/04/30 00:04:14;;;;;;;;;;;;;;;12.51;100.00;98690.75;131275;1281;5369084;-68
2023/04/30 00:07:17;;;;;;;;;;;;;;;12.56;100.00;98692.51;135328;1281;22499;-68
2023/04/30 00:10:21;;;;;;;;;;;;;;;12.53;100.00;98694.31;135301;1281;26176;-67
2023/04/30 00:13:23;;;;;;;;;;;;;;;12.17;100.00;98692.58;135312;1281;22539;-67
2023/04/30 00:16:26;;;;;;;;;;;;;;;12.44;100.00;98690.59;135316;1281;25473;-66
2023/04/30 00:19:29;;;;;;;;;;;;;;;12.59;100.00;98687.89;135274;1281;22616;-67
2023/04/30 00:22:33;;;;;;;;;;;;;;;12.57;100.00;98690.00;135335;1281;22520;-67
2023/04/30 00:25:44;;;;;;;;;;;;;;;12.51;100.00;98690.08;135224;1281;22520;-66
2023/04/30 00:28:48;;;;;;;;;;;;;;;12.48;100.00;98692.38;135308;1278;22510;-69
2023/04/30 00:31:50;;;;;;;;;;;;;;;12.68;100.00;98692.21;135339;1281;22529;-66
2023/04/30 00:34:53;;;;;;;;;;;;;;;12.81;100.00;98690.04;135293;1281;22539;-66
2023/04/30 00:37:57;;;;;;;;;;;;;;;12.83;100.00;98690.55;135272;1264;22979;-67
2023/04/30 00:41:00;;;;;;;;;;;;;;;12.82;100.00;98687.70;135324;1281;22693;-66
2023/04/30 00:44:03;;;;;;;;;;;;;;;12.99;100.00;98690.11;135319;1281;22507;-67
2023/04/30 00:47:06;;;;;;;;;;;;;;;12.97;100.00;98695.77;135305;1281;22502;-68
2023/04/30 00:50:10;;;;;;;;;;;;;;;12.94;100.00;98692.61;135298;1281;22521;-68
2023/04/30 00:53:14;;;;;;;;;;;;;;;12.63;100.00;98699.06;135328;1281;22504;-67
2023/04/30 00:56:18;;;;;;;;;;;;;;;12.73;100.00;98699.20;135312;1281;24221;-68
2023/04/30 00:59:21;;;;;;;;;;;;;;;12.78;100.00;98700.77;135302;1281;22510;-68
2023/04/30 01:02:24;;;;;;;;;;;;;;;12.87;100.00;98698.01;135317;1281;22490;-68
2023/04/30 01:05:29;;;;;;;;;;;;;;;12.91;100.00;98699.48;135324;1281;22499;-66
2023/04/30 01:08:33;;;;;;;;;;;;;;;13.03;100.00;98700.55;135331;1281;22523;-68
2023/04/30 01:11:37;;;;;;;;;;;;;;;13.01;100.00;98700.71;135375;1281;22507;-68
2023/04/30 01:14:41;;;;;;;;;;;;;;;13.04;100.00;98702.56;135331;1281;22505;-67
2023/04/30 01:17:44;;;;;;;;;;;;;;;13.22;100.00;98703.18;135275;1281;22523;-66
2023/04/30 01:20:47;;;;;;;;;;;;;;;13.42;100.00;98702.77;135326;1281;22501;-67
2023/04/30 01:23:50;;;;;;;;;;;;;;;13.51;100.00;98700.39;135312;1281;25269;-67
2023/04/30 01:26:54;;;;;;;;;;;;;;;13.44;100.00;98705.10;135305;1281;25220;-67
2023/04/30 01:30:00;;;;;;;;;;;;;;;13.54;100.00;98704.91;135348;1281;22517;-68
2023/04/30 01:33:04;;;;;;;;;;;;;;;13.59;100.00;98703.16;135292;1281;22503;-67
2023/04/30 01:36:07;;;;;;;;;;;;;;;13.74;100.00;98706.23;135306;1281;22921;-67
2023/04/30 01:39:11;;;;;;;;;;;;;;;13.68;100.00;98703.84;135321;1281;22551;-66
2023/04/30 01:42:15;;;;;;;;;;;;;;;13.62;100.00;98705.38;135296;1281;22556;-66
2023/04/30 01:45:18;;;;;;;;;;;;;;;13.66;100.00;98707.73;135346;1281;22507;-66
2023/04/30 01:48:25;;;;;;;;;;;;;;;13.63;100.00;98708.81;135332;1281;22506;-67
2023/04/30 01:51:29;;;;;;;;;;;;;;;13.61;100.00;98710.86;135311;1281;22522;-67
2023/04/30 01:54:33;;;;;;;;;;;;;;;13.78;100.00;98710.11;135246;1281;22707;-66
2023/04/30 01:57:36;;;;;;;;;;;;;;;13.71;100.00;98713.60;135276;1281;22511;-66
2023/04/30 02:00:40;;;;;;;;;;;;;;;13.86;100.00;98714.77;135240;1281;22611;-66
2023/04/30 02:03:43;;;;;;;;;;;;;;;13.96;100.00;98721.60;135303;1281;22500;-67
2023/04/30 02:06:46;;;;;;;;;;;;;;;14.00;100.00;98724.79;135281;1281;22504;-68
2023/04/30 02:09:50;;;;;;;;;;;;;;;14.03;100.00;98727.05;135319;1281;22500;-65
2023/04/30 02:12:54;;;;;;;;;;;;;;;13.91;100.00;98731.98;135332;1281;22517;-67
2023/04/30 02:15:57;;;;;;;;;;;;;;;13.92;100.00;98732.23;135338;1281;22497;-67
2023/04/30 02:19:01;;;;;;;;;;;;;;;13.74;100.00;98732.70;135280;1281;22515;-67
2023/04/30 02:22:05;;;;;;;;;;;;;;;14.04;100.00;98729.22;135268;1281;22511;-67
2023/04/30 02:25:11;;;;;;;;;;;;;;;14.08;100.00;98734.19;135329;1281;25236;-66
2023/04/30 02:28:14;;;;;;;;;;;;;;;14.08;100.00;98728.44;135285;1281;25366;-67
2023/04/30 02:31:18;;;;;;;;;;;;;;;13.98;100.00;98733.59;135372;1281;22502;-67
2023/04/30 02:34:22;;;;;;;;;;;;;;;13.98;100.00;98734.95;135297;1281;22639;-67
2023/04/30 02:37:25;;;;;;;;;;;;;;;13.95;100.00;98738.19;135290;1281;22511;-67
2023/04/30 02:40:31;;;;;;;;;;;;;;;13.94;100.00;98739.88;135326;1281;25466;-67
2023/04/30 02:43:36;;;;;;;;;;;;;;;13.87;100.00;98740.38;135315;1281;22508;-67
2023/04/30 02:46:39;;;;;;;;;;;;;;;13.88;100.00;98741.55;135303;1281;22513;-68
2023/04/30 02:49:43;;;;;;;;;;;;;;;13.91;100.00;98740.25;135368;1281;22518;-66
2023/04/30 02:52:46;;;;;;;;;;;;;;;13.51;100.00;98746.08;135336;1281;22505;-67
2023/04/30 02:55:50;;;;;;;;;;;;;;;13.69;100.00;98744.55;135276;1281;22515;-67
2023/04/30 02:58:53;;;;;;;;;;;;;;;13.66;100.00;98751.59;135339;1281;22527;-67
2023/04/30 03:01:57;;;;;;;;;;;;;;;13.67;100.00;98758.58;135313;1281;22619;-69
2023/04/30 03:05:01;;;;;;;;;;;;;;;13.70;100.00;98766.05;135319;1268;22504;-68
2023/04/30 03:08:04;;;;;;;;;;;;;;;13.65;100.00;98787.67;135323;1281;22504;-67
2023/04/30 03:11:06;;;;;;;;;;;;;;;13.44;100.00;98796.97;135280;1281;22704;-67
2023/04/30 03:14:10;;;;;;;;;;;;;;;13.36;100.00;98797.22;135354;1281;22499;-68
2023/04/30 03:17:13;;;;;;;;;;;;;;;13.18;100.00;98799.19;135317;1281;22511;-68
2023/04/30 03:20:19;;;;;;;;;;;;;;;13.00;100.00;98808.32;135348;1281;22503;-68
2023/04/30 03:23:23;;;;;;;;;;;;;;;12.93;100.00;98803.77;135298;1281;22515;-67
2023/04/30 03:26:26;;;;;;;;;;;;;;;12.99;100.00;98802.64;135236;1281;22616;-68
2023/04/30 03:29:30;;;;;;;;;;;;;;;13.05;100.00;98808.85;135339;1281;22519;-66
2023/04/30 03:32:33;;;;;;;;;;;;;;;12.94;100.00;98805.79;135329;1281;22556;-67
2023/04/30 03:35:36;;;;;;;;;;;;;;;12.87;100.00;98807.48;135309;1281;22503;-67
2023/04/30 03:38:40;;;;;;;;;;;;;;;12.92;100.00;98811.55;135351;1278;22642;-67
2023/04/30 03:41:43;;;;;;;;;;;;;;;12.83;100.00;98815.66;135316;1281;22528;-68
2023/04/30 03:44:46;;;;;;;;;;;;;;;12.66;100.00;98831.05;135334;1281;22531;-69
2023/04/30 03:47:49;;;;;;;;;;;;;;;12.29;100.00;98834.52;135315;1281;23879;-67
2023/04/30 03:50:52;;;;;;;;;;;;;;;12.31;100.00;98849.79;135332;1281;22502;-67
2023/04/30 03:53:55;;;;;;;;;;;;;;;12.36;100.00;98842.06;135335;1281;22507;-68
2023/04/30 03:56:58;;;;;;;;;;;;;;;11.98;100.00;98852.16;135324;1281;22539;-67
2023/04/30 04:00:03;;;;;;;;;;;;;;;12.13;100.00;98857.64;135321;1281;22506;-67
2023/04/30 04:03:07;;;;;;;;;;;;;;;12.26;100.00;98856.08;135324;1281;22623;-67
2023/04/30 04:06:11;;;;;;;;;;;;;;;12.28;100.00;98859.95;135350;1281;22493;-68
2023/04/30 04:09:14;;;;;;;;;;;;;;;12.42;100.00;98869.56;135321;1281;22515;-67
2023/04/30 04:12:21;;;;;;;;;;;;;;;12.26;100.00;98881.54;135381;1281;22746;-67
2023/04/30 04:15:24;;;;;;;;;;;;;;;12.06;100.00;98887.55;135323;1281;22665;-68
2023/04/30 04:18:28;;;;;;;;;;;;;;;11.86;100.00;98900.06;135273;1281;22512;-67
2023/04/30 04:21:32;;;;;;;;;;;;;;;11.98;100.00;98904.91;135328;1281;22639;-67
2023/04/30 04:24:37;;;;;;;;;;;;;;;11.98;100.00;98907.85;135272;1281;22515;-67
2023/04/30 04:27:41;;;;;;;;;;;;;;;12.11;100.00;98921.23;135287;1281;22624;-67
2023/04/30 04:30:45;;;;;;;;;;;;;;;11.92;100.00;98923.34;135254;1281;22507;-67
2023/04/30 04:33:48;;;;;;;;;;;;;;;11.96;100.00;98933.94;135272;1281;22556;-68
2023/04/30 04:36:52;;;;;;;;;;;;;;;11.88;100.00;98934.41;135239;1281;25471;-67
2023/04/30 04:39:56;;;;;;;;;;;;;;;11.82;100.00;98934.46;135354;1281;22674;-68
2023/04/30 04:42:59;;;;;;;;;;;;;;;11.81;100.00;98938.19;135314;1281;25271;-67
2023/04/30 04:46:03;;;;;;;;;;;;;;;11.80;100.00;98939.13;135305;1281;22531;-67
2023/04/30 04:49:08;;;;;;;;;;;;;;;11.77;100.00;98944.23;135330;1281;22501;-68
2023/04/30 04:52:11;;;;;;;;;;;;;;;11.83;100.00;98948.91;135303;1281;22496;-68
2023/04/30 04:55:14;;;;;;;;;;;;;;;11.70;100.00;98955.73;135299;1262;22523;-68
2023/04/30 04:58:16;;;;;;;;;;;;;;;11.61;100.00;98959.40;135339;1281;22500;-69
2023/04/30 05:01:20;;;;;;;;;;;;;;;11.71;100.00;98966.69;135334;1281;22529;-68
2023/04/30 05:04:24;;;;;;;;;;;;;;;11.75;100.00;98975.04;135351;1281;25211;-68
2023/04/30 05:07:27;;;;;;;;;;;;;;;11.78;100.00;98982.56;135324;1281;22504;-69
2023/04/30 05:10:31;;;;;;;;;;;;;;;11.65;100.00;98982.30;135344;1281;26615;-67
2023/04/30 05:13:34;;;;;;;;;;;;;;;11.74;100.00;98985.60;135319;1281;22500;-68
2023/04/30 05:16:37;;;;;;;;;;;;;;;11.90;100.00;98995.13;135352;1281;22624;-69
2023/04/30 05:19:41;;;;;;;;;;;;;;;11.96;100.00;98999.10;135370;1281;24199;-67
2023/04/30 05:22:44;;;;;;;;;;;;;;;11.97;100.00;99003.46;135308;1281;24225;-67
2023/04/30 05:25:47;;;;;;;;;;;;;;;12.17;100.00;99001.48;135296;1281;22518;-68
2023/04/30 05:28:51;;;;;;;;;;;;;;;12.24;100.00;99002.79;135329;1281;22527;-67
2023/04/30 05:31:57;;;;;;;;;;;;;;;12.33;100.00;99006.72;135327;1281;22511;-67
2023/04/30 05:35:00;;;;;;;;;;;;;;;12.44;100.00;99015.66;135288;1262;22618;-68
2023/04/30 05:38:04;;;;;;;;;;;;;;;12.42;100.00;99013.17;135296;1281;22614;-68
2023/04/30 05:41:07;;;;;;;;;;;;;;;12.52;100.00;99018.66;135330;1281;22509;-67
2023/04/30 05:44:10;;;;;;;;;;;;;;;12.59;100.00;99020.84;135333;1281;22513;-67
2023/04/30 05:47:13;;;;;;;;;;;;;;;12.68;100.00;99019.71;135287;1281;22717;-68
2023/04/30 05:50:16;;;;;;;;;;;;;;;12.73;100.00;99021.33;135341;1281;22512;-68
2023/04/30 05:53:20;;;;;;;;;;;;;;;12.88;99.20;99023.14;135287;1281;22506;-68
2023/04/30 05:56:24;;;;;;;;;;;;;;;12.98;97.09;99029.46;135333;1281;22511;-67
2023/04/30 05:59:31;;;;;;;;;;;;;;;13.04;95.83;99032.56;135356;1281;22505;-68
2023/04/30 06:02:35;;;;;;;;;;;;;;;13.12;95.20;99037.63;135275;1281;25745;-68
2023/04/30 06:05:40;;;;;;;;;;;;;;;13.18;95.33;99035.16;135316;1281;22620;-67
2023/04/30 06:08:44;;;;;;;;;;;;;;;13.20;91.93;99046.08;135314;1281;24224;-68
2023/04/30 06:11:49;;;;;;;;;;;;;;;13.32;92.22;99038.09;135328;1281;22509;-67
2023/04/30 06:14:52;;;;;;;;;;;;;;;13.44;91.64;99044.11;135335;1281;22585;-66
2023/04/30 06:17:55;;;;;;;;;;;;;;;13.46;88.18;99042.54;135352;1281;22516;-67
2023/04/30 06:21:00;;;;;;;;;;;;;;;13.64;88.84;99043.05;135263;1281;22618;-67
2023/04/30 06:24:04;;;;;;;;;;;;;;;13.66;86.66;99048.73;135320;1281;23887;-67
2023/04/30 06:27:09;;;;;;;;;;;;;;;13.66;85.32;99047.50;135343;1281;22584;-67
2023/04/30 06:30:13;;;;;;;;;;;;;;;13.50;84.19;99058.96;135367;1281;22495;-67
2023/04/30 06:33:17;;;;;;;;;;;;;;;13.60;83.28;99070.92;135321;1281;22500;-67
2023/04/30 06:36:21;;;;;;;;;;;;;;;13.86;81.98;99058.56;135332;1281;22541;-67
2023/04/30 06:39:24;;;;;;;;;;;;;;;14.19;79.39;99059.77;135335;1281;22543;-68
2023/04/30 06:42:33;;;;;;;;;;;;;;;14.43;77.49;99071.70;135348;1281;22507;-67
2023/04/30 06:45:36;;;;;;;;;;;;;;;14.66;77.28;99066.05;135325;1281;22583;-67
2023/04/30 06:48:40;;;;;;;;;;;;;;;14.94;76.36;99061.69;135389;1281;22512;-69
2023/04/30 06:51:44;;;;;;;;;;;;;;;15.19;75.80;99066.67;135321;1281;22620;-67
2023/04/30 06:54:47;;;;;;;;;;;;;;;15.25;72.53;99076.45;135274;1281;22517;-69
2023/04/30 06:57:51;;;;;;;;;;;;;;;15.30;70.24;99074.24;135293;1272;22516;-67
2023/04/30 07:00:54;;;;;;;;;;;;;;;15.45;71.33;99078.93;135270;1281;22504;-67
2023/04/30 07:03:59;;;;;;;;;;;;;;;15.52;70.50;99078.90;135273;1281;22502;-66
2023/04/30 07:07:03;;;;;;;;;;;;;;;15.57;68.21;99083.33;135324;1281;22504;-67
2023/04/30 07:10:07;;;;;;;;;;;;;;;15.67;68.09;99091.16;135260;1281;22527;-65
2023/04/30 07:13:10;;;;;;;;;;;;;;;15.61;67.05;99088.08;135327;1281;22530;-70
2023/04/30 07:16:15;;;;;;;;;;;;;;;15.61;66.24;99093.07;135315;1281;22627;-67
2023/04/30 07:19:19;;;;;;;;;;;;;;;15.73;67.67;99091.29;135314;1281;22509;-67
2023/04/30 07:22:23;;;;;;;;;;;;;;;15.75;65.83;99090.55;135312;1281;22514;-67
2023/04/30 07:25:27;;;;;;;;;;;;;;;15.50;62.64;99100.38;135366;1281;22557;-67
2023/04/30 07:28:30;;;;;;;;;;;;;;;15.42;63.41;99099.66;135365;1281;22526;-69
2023/04/30 07:31:33;;;;;;;;;;;;;;;15.49;62.92;99107.23;135366;1281;22534;-68
2023/04/30 07:34:40;;;;;;;;;;;;;;;15.40;62.85;99099.81;135359;1281;22514;-66
2023/04/30 07:37:43;;;;;;;;;;;;;;;15.51;61.72;99122.55;135375;1281;22540;-67
2023/04/30 07:40:46;;;;;;;;;;;;;;;15.48;61.85;99118.23;135398;1281;22535;-69
2023/04/30 07:43:50;;;;;;;;;;;;;;;15.39;61.36;99125.08;135379;1281;22510;-67
2023/04/30 07:46:54;;;;;;;;;;;;;;;15.71;59.56;99133.21;135372;1281;22515;-67
2023/04/30 07:49:57;;;;;;;;;;;;;;;15.66;60.28;99131.08;135341;1281;22518;-67
2023/04/30 07:53:01;;;;;;;;;;;;;;;16.10;60.54;99124.20;135376;1281;22507;-69
2023/04/30 07:56:05;;;;;;;;;;;;;;;16.07;59.99;99123.56;135353;1281;22557;-67
2023/04/30 07:59:08;;;;;;;;;;;;;;;16.66;59.67;99128.39;135352;1281;22504;-68
2023/04/30 08:02:12;;;;;;;;;;;;;;;16.78;55.48;99134.08;135387;1281;22508;-68
2023/04/30 08:05:15;;;;;;;;;;;;;;;16.08;54.76;99140.92;135387;1281;22504;-66
2023/04/30 08:08:19;;;;;;;;;;;;;;;15.71;54.18;99141.27;135337;1281;22507;-67
2023/04/30 08:11:23;;;;;;;;;;;;;;;15.40;53.23;99139.45;135358;1281;22503;-68
2023/04/30 08:14:27;;;;;;;;;;;;;;;15.70;51.58;99138.54;135375;1281;22512;-68
2023/04/30 08:17:31;;;;;;;;;;;;;;;16.01;50.66;99144.69;135339;1281;22521;-67
2023/04/30 08:20:34;;;;;;;;;;;;;;;15.97;51.01;99141.64;135333;1281;22525;-67
2023/04/30 08:23:38;;;;;;;;;;;;;;;15.92;49.11;99146.08;135365;1281;22538;-68
2023/04/30 08:26:42;;;;;;;;;;;;;;;16.05;49.72;99150.70;135398;1281;22511;-69
2023/04/30 08:29:45;;;;;;;;;;;;;;;16.42;49.84;99151.84;135341;1281;22512;-68
2023/04/30 08:32:49;;;;;;;;;;;;;;;16.51;49.21;99147.02;135362;1281;22515;-68
2023/04/30 08:35:52;;;;;;;;;;;;;;;16.59;46.98;99156.08;135376;1281;23917;-68
2023/04/30 08:38:57;;;;;;;;;;;;;;;16.57;47.22;99153.23;135335;1281;22523;-67
2023/04/30 08:45:26;;;;;;;;;;;;;;;16.71;44.67;99160.99;135386;1281;22515;-68
2023/04/30 08:48:30;;;;;;;;;;;;;;;16.78;44.34;99177.71;135387;1281;24322;-67
2023/04/30 08:51:34;;;;;;;;;;;;;;;16.75;45.37;99163.83;135387;1281;22504;-67
2023/04/30 08:54:37;;;;;;;;;;;;;;;16.95;47.55;99158.36;135406;1281;22527;-67
2023/04/30 08:57:41;;;;;;;;;;;;;;;17.10;46.37;99164.03;135387;1281;22506;-67
2023/04/30 09:00:45;;;;;;;;;;;;;;;17.14;45.21;99169.38;135374;1281;22504;-68
2023/04/30 09:03:49;;;;;;;;;;;;;;;17.03;44.39;99166.36;135392;1281;22509;-67
2023/04/30 09:06:57;;;;;;;;;;;;;;;17.17;45.47;99154.23;135352;1281;22515;-67
2023/04/30 09:10:03;;;;;;;;;;;;;;;17.47;45.94;99155.81;135373;1281;22517;-68
2023/04/30 09:13:07;;;;;;;;;;;;;;;17.74;44.48;99147.84;135344;1281;22511;-67
2023/04/30 09:16:12;;;;;;;;;;;;;;;17.75;44.78;99167.29;135354;1281;22517;-67
2023/04/30 09:19:16;;;;;;;;;;;;;;;17.02;44.75;99182.99;135343;1281;22517;-67
2023/04/30 09:22:19;;;;;;;;;;;;;;;16.96;46.38;99169.22;135383;1281;22507;-68
2023/04/30 09:25:23;;;;;;;;;;;;;;;17.29;45.94;99165.05;135384;1281;24416;-67
2023/04/30 09:28:28;;;;;;;;;;;;;;;17.20;45.21;99177.84;135386;1281;22511;-68
2023/04/30 09:31:31;;;;;;;;;;;;;;;16.90;46.12;99174.48;135322;1281;22523;-67
2023/04/30 09:34:35;;;;;;;;;;;;;;;17.37;45.91;99168.86;135269;1281;22671;-68
2023/04/30 09:37:39;;;;;;;;;;;;;;;17.59;44.55;99172.14;135343;1281;22582;-68
2023/04/30 09:40:44;;;;;;;;;;;;;;;17.49;44.01;99182.37;135355;1281;22514;-67
2023/04/30 09:43:47;;;;;;;;;;;;;;;16.88;44.41;99190.20;135357;1281;25303;-67
2023/04/30 09:46:51;;;;;;;;;;;;;;;16.89;44.44;99182.02;135299;1281;22682;-67
2023/04/30 09:49:55;;;;;;;;;;;;;;;17.17;43.63;99186.08;135292;1281;25447;-67
2023/04/30 09:52:57;;;;;;;;;;;;;;;17.49;45.48;99171.56;135321;1281;22519;-67
2023/04/30 09:56:01;;;;;;;;;;;;;;;17.61;42.56;99181.02;135405;1281;22596;-67
2023/04/30 09:59:04;;;;;;;;;;;;;;;17.65;43.18;99182.07;135359;1260;22528;-68
2023/04/30 10:02:09;;;;;;;;;;;;;;;17.82;42.39;99181.68;135344;1281;22508;-67
2023/04/30 10:05:12;;;;;;;;;;;;;;;17.68;40.18;99184.67;135354;1281;22517;-69
2023/04/30 10:08:15;;;;;;;;;;;;;;;17.60;40.18;99176.86;135402;1262;24222;-68
2023/04/30 10:11:18;;;;;;;;;;;;;;;17.60;39.87;99184.77;135376;1264;22511;-68
2023/04/30 10:14:21;;;;;;;;;;;;;;;17.62;39.19;99176.86;135396;1281;24385;-68
2023/04/30 10:17:25;;;;;;;;;;;;;;;17.34;39.05;99189.05;135340;1281;25618;-68
2023/04/30 10:20:29;;;;;;;;;;;;;;;17.58;40.65;99172.77;135380;1281;22510;-66
2023/04/30 10:23:32;;;;;;;;;;;;;;;17.92;39.59;99163.71;135365;1281;24224;-67
2023/04/30 10:26:35;;;;;;;;;;;;;;;18.14;40.14;99153.50;135352;1281;22577;-68
2023/04/30 10:29:38;;;;;;;;;;;;;;;18.24;40.47;99164.45;135335;1281;22533;-68
2023/04/30 10:32:41;;;;;;;;;;;;;;;18.32;40.70;99158.32;135380;1281;22642;-68
2023/04/30 10:35:44;;;;;;;;;;;;;;;18.54;40.98;99159.73;135340;1281;22554;-69
2023/04/30 10:38:48;;;;;;;;;;;;;;;18.44;39.03;99166.08;135381;1260;22529;-67
2023/04/30 10:41:51;;;;;;;;;;;;;;;18.16;38.90;99165.39;135379;1281;22536;-67
2023/04/30 10:44:55;;;;;;;;;;;;;;;18.07;39.30;99163.48;135375;1281;22550;-68
2023/04/30 10:47:58;;;;;;;;;;;;;;;18.18;41.02;99152.81;135378;1281;22587;-67
2023/04/30 10:51:01;;;;;;;;;;;;;;;18.50;37.73;99152.50;135335;1281;22559;-67
2023/04/30 10:54:04;;;;;;;;;;;;;;;18.84;37.11;99144.45;135364;1281;22513;-68
2023/04/30 10:57:16;;;;;;;;;;;;;;;18.80;37.98;99160.09;135417;1281;24212;-69
2023/04/30 11:00:19;;;;;;;;;;;;;;;18.77;37.24;99159.32;135425;1264;22620;-67
2023/04/30 11:03:23;;;;;;;;;;;;;;;18.73;36.87;99172.06;135343;1281;22531;-68
2023/04/30 11:06:27;;;;;;;;;;;;;;;18.78;36.96;99164.84;135396;1281;22524;-67
2023/04/30 11:09:31;;;;;;;;;;;;;;;18.59;35.33;99173.44;135410;1281;22523;-67
2023/04/30 11:12:34;;;;;;;;;;;;;;;18.60;36.24;99168.79;135352;1281;22518;-69
2023/04/30 11:15:37;;;;;;;;;;;;;;;18.79;35.77;99167.82;135394;1281;22509;-68
2023/04/30 11:18:40;;;;;;;;;;;;;;;18.67;35.95;99166.20;135367;1281;22626;-67
2023/04/30 11:21:43;;;;;;;;;;;;;;;18.73;35.72;99159.64;135389;1281;22505;-68
2023/04/30 11:24:46;;;;;;;;;;;;;;;18.65;37.23;99157.30;135339;1281;25400;-68
2023/04/30 11:27:49;;;;;;;;;;;;;;;18.83;36.31;99175.91;135376;1281;22546;-67
2023/04/30 11:30:53;;;;;;;;;;;;;;;18.87;37.19;99161.75;135364;1281;22523;-68
2023/04/30 11:33:56;;;;;;;;;;;;;;;19.22;37.46;99162.18;135359;1281;22516;-68
2023/04/30 11:37:00;;;;;;;;;;;;;;;19.42;36.66;99155.87;135395;1281;22513;-67
2023/04/30 11:40:04;;;;;;;;;;;;;;;19.19;35.81;99162.77;135402;1281;22511;-70
2023/04/30 11:43:09;;;;;;;;;;;;;;;19.19;36.78;99154.52;135368;1281;23812;-67
2023/04/30 11:46:14;;;;;;;;;;;;;;;19.46;36.78;99157.46;135342;1281;22500;-67
2023/04/30 11:49:17;;;;;;;;;;;;;;;19.54;37.31;99162.83;135355;1281;22532;-68
2023/04/30 11:52:21;;;;;;;;;;;;;;;19.30;37.71;99174.53;135365;1281;22509;-68
2023/04/30 11:55:24;;;;;;;;;;;;;;;19.37;37.03;99162.96;135354;1281;22537;-67
2023/04/30 11:58:32;;;;;;;;;;;;;;;19.45;37.05;99157.61;135352;1281;22613;-68
2023/04/30 12:01:36;;;;;;;;;;;;;;;19.57;37.65;99151.14;135358;1281;22518;-68
2023/04/30 12:04:40;;;;;;;;;;;;;;;19.62;35.48;99165.97;131234;1281;5377279;-67
2023/04/30 12:07:43;;;;;;;;;;;;;;;19.61;35.79;99153.09;135340;1281;25335;-67
2023/04/30 12:10:47;;;;;;;;;;;;;;;19.64;35.00;99169.08;135371;1281;22500;-68
2023/04/30 12:13:50;;;;;;;;;;;;;;;19.37;35.87;99156.95;135381;1281;25287;-68
2023/04/30 12:16:54;;;;;;;;;;;;;;;19.38;35.45;99158.59;135367;1281;22504;-67
2023/04/30 12:19:57;;;;;;;;;;;;;;;19.44;36.80;99161.88;135403;1281;22627;-68
2023/04/30 12:23:00;;;;;;;;;;;;;;;19.42;34.61;99174.02;135258;1281;22507;-68
2023/04/30 12:26:06;;;;;;;;;;;;;;;19.45;35.37;99164.48;135302;1274;22511;-68
2023/04/30 12:29:09;;;;;;;;;;;;;;;19.43;35.00;99153.90;135326;1281;22631;-68
2023/04/30 12:32:14;;;;;;;;;;;;;;;19.55;35.20;99158.82;135360;1281;22507;-67
2023/04/30 12:35:19;;;;;;;;;;;;;;;19.69;34.19;99158.86;135321;1281;22592;-67
2023/04/30 12:38:25;;;;;;;;;;;;;;;19.43;34.18;99158.12;135359;1281;22517;-68
2023/04/30 12:41:27;;;;;;;;;;;;;;;19.63;34.30;99144.60;135359;1281;25312;-68
2023/04/30 12:44:30;;;;;;;;;;;;;;;20.10;35.28;99147.41;135350;1281;25593;-68
2023/04/30 12:47:34;;;;;;;;;;;;;;;20.12;33.36;99147.98;135332;1281;22515;-69
2023/04/30 12:50:38;;;;;;;;;;;;;;;20.19;32.39;99152.84;135368;1281;22516;-68
2023/04/30 12:53:42;;;;;;;;;;;;;;;19.97;32.16;99148.89;135387;1281;22500;-68
2023/04/30 12:56:48;;;;;;;;;;;;;;;20.04;32.88;99160.61;135382;1281;22522;-68
2023/04/30 12:59:54;;;;;;;;;;;;;;;19.93;32.18;99143.54;135377;1281;22524;-68
2023/04/30 13:02:57;;;;;;;;;;;;;;;20.10;31.66;99146.52;135392;1281;26461;-68
2023/04/30 13:06:03;;;;;;;;;;;;;;;20.12;30.86;99156.27;135372;1281;22521;-70
2023/04/30 13:09:06;;;;;;;;;;;;;;;20.23;32.18;99146.20;135386;1281;22524;-69
2023/04/30 13:12:09;;;;;;;;;;;;;;;20.07;30.31;99152.66;135320;1281;22458;-70
2023/04/30 13:15:16;;;;;;;;;;;;;;;19.88;31.54;99151.45;135398;1281;22515;-67
2023/04/30 13:18:20;;;;;;;;;;;;;;;19.75;31.65;99154.77;135358;1281;24259;-69
2023/04/30 13:21:24;;;;;;;;;;;;;;;19.76;31.28;99157.06;135383;1267;22634;-68
2023/04/30 13:24:29;;;;;;;;;;;;;;;19.87;33.08;99140.73;135346;1281;22547;-68
2023/04/30 13:27:34;;;;;;;;;;;;;;;19.84;31.34;99161.08;135376;1281;22530;-68
2023/04/30 13:30:39;;;;;;;;;;;;;;;19.87;31.38;99148.32;135361;1281;22536;-68
2023/04/30 13:33:42;;;;;;;;;;;;;;;19.90;32.41;99145.77;135384;1281;25348;-68
2023/04/30 13:36:46;;;;;;;;;;;;;;;20.03;30.03;99145.96;135364;1281;22529;-68
2023/04/30 13:39:49;;;;;;;;;;;;;;;19.99;30.40;99156.43;135336;1261;22514;-67
2023/04/30 13:42:53;;;;;;;;;;;;;;;20.04;30.43;99147.77;135370;1281;22510;-68
2023/04/30 13:45:57;;;;;;;;;;;;;;;19.96;28.75;99160.30;135370;1281;25327;-68
2023/04/30 13:49:02;;;;;;;;;;;;;;;19.83;29.70;99158.00;135414;1281;22496;-68
2023/04/30 13:52:05;;;;;;;;;;;;;;;19.93;30.26;99151.75;135347;1281;24213;-67
2023/04/30 13:55:08;;;;;;;;;;;;;;;19.96;29.76;99153.55;135370;1262;22507;-67
2023/04/30 13:58:12;;;;;;;;;;;;;;;20.10;29.51;99151.54;135367;1281;22515;-68
2023/04/30 14:01:15;;;;;;;;;;;;;;;20.05;29.78;99143.95;135382;1281;22497;-68
2023/04/30 14:04:20;;;;;;;;;;;;;;;20.10;29.45;99141.95;135340;1281;22543;-68
2023/04/30 14:07:24;;;;;;;;;;;;;;;19.92;28.94;99144.52;135412;1281;22517;-69
2023/04/30 14:10:27;;;;;;;;;;;;;;;19.93;30.44;99154.08;135380;1281;22576;-68
2023/04/30 14:13:31;;;;;;;;;;;;;;;20.00;29.15;99161.49;135392;1281;22504;-69
2023/04/30 14:16:35;;;;;;;;;;;;;;;19.84;28.46;99164.14;135423;1281;22521;-69
2023/04/30 14:19:38;;;;;;;;;;;;;;;19.53;28.11;99171.91;135312;1281;22514;-69
2023/04/30 14:22:42;;;;;;;;;;;;;;;19.60;28.64;99160.41;135385;1281;22522;-68
2023/04/30 14:25:48;;;;;;;;;;;;;;;19.71;28.18;99151.28;135362;1281;22513;-69
2023/04/30 14:28:51;;;;;;;;;;;;;;;19.72;27.58;99157.73;135332;1263;22766;-68
2023/04/30 14:31:54;;;;;;;;;;;;;;;19.70;27.99;99153.10;135373;1262;22503;-68
2023/04/30 14:34:57;;;;;;;;;;;;;;;19.79;28.39;99156.02;135396;1281;22517;-67
2023/04/30 14:38:00;;;;;;;;;;;;;;;19.99;28.41;99155.79;135416;1281;22613;-68
2023/04/30 14:41:02;;;;;;;;;;;;;;;20.01;27.85;99158.98;135382;1281;22727;-68
2023/04/30 14:44:06;;;;;;;;;;;;;;;19.90;27.68;99151.67;135370;1281;22523;-68
2023/04/30 14:47:09;;;;;;;;;;;;;;;19.89;28.39;99155.42;135392;1281;22693;-69
2023/04/30 14:50:12;;;;;;;;;;;;;;;20.09;27.29;99168.64;135370;1281;22516;-69
2023/04/30 14:53:16;;;;;;;;;;;;;;;19.98;26.81;99167.08;135447;1281;22624;-69
2023/04/30 14:56:19;;;;;;;;;;;;;;;19.97;27.13;99165.52;135384;1281;23891;-68
2023/04/30 14:59:24;;;;;;;;;;;;;;;19.87;27.35;99171.79;135359;1280;22530;-68
2023/04/30 15:02:28;;;;;;;;;;;;;;;19.94;26.75;99167.94;135355;1281;22511;-68
2023/04/30 15:05:32;;;;;;;;;;;;;;;20.01;26.95;99169.39;135406;1281;22599;-68
2023/04/30 15:08:35;;;;;;;;;;;;;;;20.14;26.89;99168.86;135349;1281;22507;-67
2023/04/30 15:11:39;;;;;;;;;;;;;;;20.63;25.77;99174.35;135313;1281;22565;-67
2023/04/30 15:14:42;;;;;;;;;;;;;;;21.91;24.44;99167.65;135360;1281;25250;-67
2023/04/30 15:17:45;;;;;;;;;;;;;;;23.37;23.34;99169.25;135328;1259;22518;-67
2023/04/30 15:20:49;;;;;;;;;;;;;;;24.44;22.28;99166.17;135334;1281;22556;-68
2023/04/30 15:23:52;;;;;;;;;;;;;;;25.51;21.49;99167.60;135346;1262;22561;-68
2023/04/30 15:26:55;;;;;;;;;;;;;;;26.65;21.11;99161.80;135360;1262;22529;-68
2023/04/30 15:29:58;;;;;;;;;;;;;;;27.45;20.37;99168.02;135366;1281;22557;-68
2023/04/30 15:33:01;;;;;;;;;;;;;;;27.95;19.88;99163.74;135369;1262;22514;-68
2023/04/30 15:36:04;;;;;;;;;;;;;;;27.91;18.88;99172.84;135413;1281;22517;-68
2023/04/30 15:39:07;;;;;;;;;;;;;;;28.09;19.68;99169.77;135326;1278;22523;-68
2023/04/30 15:42:10;;;;;;;;;;;;;;;28.51;18.53;99175.73;135393;1262;24213;-66